createdAt,value
2022-11-24T01:30:30.690Z,-2.85
2022-11-24T01:32:58.126Z,-2.88
2022-11-24T01:35:25.361Z,-2.88
2022-11-24T01:37:52.573Z,-2.83
2022-11-24T01:40:20.215Z,-2.91
2022-11-24T01:42:50.735Z,-2.97
2022-11-24T01:45:41.157Z,-2.93
2022-11-24T01:48:31.570Z,-3.05
2022-11-24T01:51:26.986Z,-3.27
2022-11-24T01:54:03.153Z,-3.17
2022-11-24T01:56:31.874Z,-3.48
2022-11-24T01:59:03.432Z,-3.33
2022-11-24T02:01:32.472Z,-3.33
2022-11-24T02:04:04.006Z,-3.35
2022-11-24T02:06:33.841Z,-3.27
2022-11-24T02:09:12.129Z,-3.16
2022-11-24T02:11:40.882Z,-3.05
2022-11-24T02:14:13.314Z,-3.06
2022-11-24T02:16:43.577Z,-3.31
2022-11-24T02:19:37.110Z,-3.48
2022-11-24T02:22:06.320Z,-3.46
2022-11-24T02:24:49.780Z,-3.65
2022-11-24T02:27:17.494Z,-3.54
2022-11-24T02:29:45.632Z,-3.48
2022-11-24T02:32:15.834Z,-3.70
2022-11-24T02:34:45.635Z,-3.78
2022-11-24T02:40:03.594Z,-3.97
2022-11-24T02:42:37.324Z,-4.03
2022-11-24T02:45:06.046Z,-4.11
2022-11-24T02:47:33.505Z,-4.17
2022-11-24T02:50:01.227Z,-3.99
2022-11-24T02:52:30.455Z,-4.18
2022-11-24T02:54:59.778Z,-4.24
2022-11-24T02:57:27.293Z,-4.49
2022-11-24T02:59:55.379Z,-4.38
2022-11-24T03:02:23.614Z,-4.12
2022-11-24T03:04:51.166Z,-3.93
2022-11-24T03:07:18.807Z,-4.10
2022-11-24T03:09:46.539Z,-3.92
2022-11-24T03:12:13.943Z,-3.97
2022-11-24T03:14:41.649Z,-4.11
2022-11-24T03:17:09.214Z,-3.95
2022-11-24T03:19:42.646Z,-4.04
2022-11-24T03:22:09.909Z,-3.86
2022-11-24T03:24:38.559Z,-4.02
2022-11-24T03:27:06.289Z,-3.92
2022-11-24T03:29:34.020Z,-4.01
2022-11-24T04:06:12.674Z,-4.11
2022-11-24T04:08:40.386Z,-4.05
2022-11-24T04:11:07.945Z,-4.08
2022-11-24T04:13:35.490Z,-4.08
2022-11-24T04:16:09.738Z,-3.92
2022-11-24T04:18:37.300Z,-4.13
2022-11-24T04:21:05.799Z,-4.27
2022-11-24T04:23:34.122Z,-4.13
2022-11-24T04:26:01.493Z,-4.39
2022-11-24T04:28:29.628Z,-4.00
2022-11-24T04:31:02.848Z,-3.88
2022-11-24T04:39:23.202Z,-3.93
2022-11-24T04:47:07.685Z,-3.79
2022-11-24T04:49:35.685Z,-4.06
2022-11-24T04:57:31.605Z,-4.12
2022-11-24T04:59:59.459Z,-4.19
2022-11-24T05:07:49.669Z,-4.08
2022-11-24T05:10:45.365Z,-3.90
